createdAt,value
2024-01-16T00:02:39.784Z,-0.81
2024-01-16T00:05:25.733Z,-0.83
2024-01-16T00:08:11.783Z,-0.84
2024-01-16T00:10:57.608Z,-0.84
2024-01-16T00:13:43.024Z,-0.83
2024-01-16T00:16:28.434Z,-0.85
2024-01-16T00:19:14.876Z,-0.86
2024-01-16T00:22:01.652Z,-0.87
2024-01-16T00:24:47.790Z,-0.88
2024-01-16T00:27:33.670Z,-0.88
2024-01-16T00:30:19.815Z,-0.88
2024-01-16T00:33:08.367Z,-0.86
2024-01-16T00:35:53.952Z,-0.85
2024-01-16T00:38:39.301Z,-0.83
2024-01-16T00:41:25.092Z,-0.83
2024-01-16T00:44:12.126Z,-0.83
2024-01-16T00:46:57.904Z,-0.83
2024-01-16T00:49:43.532Z,-0.84
2024-01-16T00:52:29.173Z,-0.83
2024-01-16T00:55:14.900Z,-0.85
2024-01-16T00:58:00.353Z,-0.84
2024-01-16T01:00:45.919Z,-0.84
2024-01-16T01:03:31.581Z,-0.82
2024-01-16T01:06:20.329Z,-0.82
2024-01-16T01:09:06.194Z,-0.81
2024-01-16T01:11:51.656Z,-0.80
2024-01-16T01:14:37.349Z,-0.80
2024-01-16T01:17:26.048Z,-0.79
2024-01-16T01:20:13.917Z,-0.79
2024-01-16T01:23:02.687Z,-0.79
2024-01-16T01:25:48.416Z,-0.81
2024-01-16T01:28:33.974Z,-0.82
2024-01-16T01:31:19.625Z,-0.83
2024-01-16T01:34:05.853Z,-0.84
2024-01-16T01:36:51.509Z,-0.83
2024-01-16T01:39:36.993Z,-0.83
2024-01-16T01:42:22.598Z,-0.84
2024-01-16T01:45:08.633Z,-0.84
2024-01-16T01:47:54.209Z,-0.82
2024-01-16T01:50:40.019Z,-0.82
2024-01-16T01:53:25.992Z,-0.84
2024-01-16T01:56:16.525Z,-0.85
2024-01-16T01:59:04.063Z,-0.85
2024-01-16T02:01:53.920Z,-0.88
2024-01-16T02:04:42.019Z,-0.89
2024-01-16T02:07:28.039Z,-0.88
2024-01-16T02:10:13.586Z,-0.89
2024-01-16T02:12:59.456Z,-0.87
2024-01-16T02:15:45.441Z,-0.87
2024-01-16T02:18:31.380Z,-0.88
2024-01-16T02:21:20.177Z,-0.90
2024-01-16T02:24:10.818Z,-0.90
2024-01-16T02:26:57.327Z,-0.91
2024-01-16T02:29:44.439Z,-0.90
2024-01-16T02:32:30.449Z,-0.92
2024-01-16T02:35:16.782Z,-0.93
2024-01-16T02:38:02.747Z,-0.95
2024-01-16T02:40:50.610Z,-0.96
2024-01-16T02:43:36.151Z,-0.95
2024-01-16T02:46:21.528Z,-0.97
2024-01-16T02:49:08.581Z,-0.97
2024-01-16T02:51:54.274Z,-0.98
2024-01-16T02:54:42.187Z,-0.99
2024-01-16T02:57:27.666Z,-0.99
2024-01-16T03:00:13.488Z,-0.99
2024-01-16T03:02:59.016Z,-1.03
2024-01-16T03:05:44.733Z,-1.03
2024-01-16T03:08:30.760Z,-1.02
2024-01-16T03:11:16.196Z,-1.03
2024-01-16T03:14:01.901Z,-1.05
2024-01-16T03:16:47.309Z,-1.07
2024-01-16T03:19:32.966Z,-1.06
2024-01-16T03:22:19.620Z,-1.07
2024-01-16T03:25:05.406Z,-1.06
2024-01-16T03:27:51.117Z,-1.10
2024-01-16T03:30:36.796Z,-1.11
2024-01-16T03:33:22.955Z,-1.11
2024-01-16T03:36:10.757Z,-1.12
2024-01-16T03:39:01.007Z,-1.12
2024-01-16T03:41:46.470Z,-1.10
2024-01-16T03:44:32.040Z,-1.09
2024-01-16T03:47:17.626Z,-1.11
2024-01-16T03:50:03.640Z,-1.11
2024-01-16T03:52:49.336Z,-1.12
2024-01-16T03:55:35.393Z,-1.14
2024-01-16T03:58:22.041Z,-1.14
2024-01-16T04:01:08.389Z,-1.15
2024-01-16T04:03:53.978Z,-1.16
2024-01-16T04:06:39.655Z,-1.18
2024-01-16T04:09:25.062Z,-1.19
2024-01-16T04:12:11.438Z,-1.18
2024-01-16T04:14:57.018Z,-1.17
2024-01-16T04:17:42.552Z,-1.19
2024-01-16T04:20:28.091Z,-1.18
2024-01-16T04:23:13.653Z,-1.18
2024-01-16T04:25:59.435Z,-1.18
2024-01-16T04:28:45.298Z,-1.17
2024-01-16T04:31:30.658Z,-1.19
2024-01-16T04:34:16.228Z,-1.20
2024-01-16T04:37:01.772Z,-1.18
2024-01-16T04:39:47.184Z,-1.19
2024-01-16T04:42:33.765Z,-1.19
2024-01-16T04:45:19.293Z,-1.19
2024-01-16T04:48:05.367Z,-1.19
2024-01-16T04:50:51.348Z,-1.19
2024-01-16T04:53:37.338Z,-1.17
2024-01-16T04:56:23.183Z,-1.17
2024-01-16T04:59:08.779Z,-1.17
2024-01-16T05:01:54.768Z,-1.17
2024-01-16T05:04:40.200Z,-1.18
2024-01-16T05:07:25.788Z,-1.17
2024-01-16T05:10:15.439Z,-1.17
2024-01-16T05:13:01.261Z,-1.16
2024-01-16T05:15:46.602Z,-1.17
2024-01-16T05:18:33.917Z,-1.17
2024-01-16T05:21:21.190Z,-1.17
2024-01-16T05:24:06.722Z,-1.19
2024-01-16T05:26:52.259Z,-1.19
2024-01-16T05:29:43.900Z,-1.19
2024-01-16T05:32:33.088Z,-1.24
2024-01-16T05:35:19.021Z,-1.28
2024-01-16T05:38:05.752Z,-1.37
2024-01-16T05:40:51.621Z,-1.39
2024-01-16T05:43:37.166Z,-1.37
2024-01-16T05:46:22.874Z,-1.36
2024-01-16T05:49:08.756Z,-1.35
2024-01-16T05:51:54.513Z,-1.33
2024-01-16T05:54:39.996Z,-1.32
2024-01-16T05:57:25.562Z,-1.32
2024-01-16T06:00:11.858Z,-1.33
2024-01-16T06:02:57.649Z,-1.34
2024-01-16T06:05:43.486Z,-1.36
2024-01-16T06:08:29.143Z,-1.36
2024-01-16T06:11:15.457Z,-1.38
2024-01-16T06:14:01.667Z,-1.38
2024-01-16T06:16:47.540Z,-1.35
2024-01-16T06:19:33.622Z,-1.39
2024-01-16T06:22:19.513Z,-1.41
2024-01-16T06:25:07.335Z,-1.42
2024-01-16T06:27:52.903Z,-1.41
2024-01-16T06:30:38.770Z,-1.38
2024-01-16T06:33:24.845Z,-1.38
2024-01-16T06:36:10.692Z,-1.38
2024-01-16T06:38:56.589Z,-1.38
2024-01-16T06:41:42.960Z,-1.37
2024-01-16T06:44:28.411Z,-1.38
2024-01-16T06:47:13.883Z,-1.35
2024-01-16T06:49:59.368Z,-1.32
2024-01-16T06:52:45.138Z,-1.31
2024-01-16T06:55:30.732Z,-1.31
2024-01-16T06:58:16.350Z,-1.30
2024-01-16T07:01:02.016Z,-1.28
2024-01-16T07:03:47.484Z,-1.30
2024-01-16T07:06:33.023Z,-1.32
2024-01-16T07:09:21.294Z,-1.29
2024-01-16T07:12:07.197Z,-1.34
2024-01-16T07:14:53.009Z,-1.36
2024-01-16T07:17:38.457Z,-1.35
2024-01-16T07:20:24.371Z,-1.35
2024-01-16T07:23:09.898Z,-1.36
2024-01-16T07:25:55.242Z,-1.36
2024-01-16T07:28:40.815Z,-1.34
2024-01-16T07:31:27.182Z,-1.34
2024-01-16T07:34:13.045Z,-1.34
2024-01-16T07:36:58.788Z,-1.34
2024-01-16T07:39:44.260Z,-1.33
2024-01-16T07:42:35.430Z,-1.32
2024-01-16T07:45:21.540Z,-1.31
2024-01-16T07:48:07.359Z,-1.28
2024-01-16T07:50:53.145Z,-1.27
2024-01-16T07:53:39.247Z,-1.28
2024-01-16T07:56:25.074Z,-1.26
2024-01-16T07:59:10.603Z,-1.24
2024-01-16T08:01:55.963Z,-1.23
2024-01-16T08:04:41.609Z,-1.21
2024-01-16T08:07:28.314Z,-1.19
2024-01-16T08:10:15.840Z,-1.17
2024-01-16T08:13:02.860Z,-1.12
2024-01-16T08:15:48.509Z,-1.08
2024-01-16T08:18:34.161Z,-1.05
2024-01-16T08:21:19.990Z,-1.02
2024-01-16T08:24:05.651Z,-0.97
2024-01-16T08:26:51.411Z,-0.94
2024-01-16T08:29:36.991Z,-0.89
2024-01-16T08:32:22.508Z,-0.85
2024-01-16T08:35:08.313Z,-0.83
2024-01-16T08:37:53.649Z,-0.80
2024-01-16T08:40:39.105Z,-0.79
2024-01-16T08:43:24.740Z,-0.80
2024-01-16T08:46:10.187Z,-0.82
2024-01-16T08:48:56.000Z,-0.84
2024-01-16T08:51:42.405Z,-0.86
2024-01-16T08:54:28.323Z,-0.93
2024-01-16T08:57:18.197Z,-0.91
2024-01-16T09:00:08.026Z,-0.92
2024-01-16T09:02:53.932Z,-0.90
2024-01-16T09:05:40.643Z,-0.92
2024-01-16T09:08:27.756Z,-0.90
2024-01-16T09:11:13.443Z,-0.89
2024-01-16T09:14:00.589Z,-0.89
2024-01-16T09:16:46.929Z,-0.91
2024-01-16T09:19:32.624Z,-0.88
2024-01-16T09:22:18.312Z,-0.83
2024-01-16T09:25:04.510Z,-0.75
2024-01-16T09:27:50.396Z,-0.70
2024-01-16T09:30:36.658Z,-0.66
2024-01-16T09:33:22.720Z,-0.56
2024-01-16T09:36:08.081Z,-0.46
2024-01-16T09:38:53.618Z,-0.40
2024-01-16T09:41:39.542Z,-0.37
2024-01-16T09:44:24.993Z,-0.39
2024-01-16T09:47:12.584Z,-0.43
2024-01-16T09:49:58.588Z,-0.47
2024-01-16T09:52:46.716Z,-0.47
2024-01-16T09:55:32.308Z,-0.48
2024-01-16T09:58:24.834Z,-0.50
2024-01-16T10:01:13.197Z,-0.43
2024-01-16T10:03:59.730Z,-0.38
2024-01-16T10:06:50.073Z,-0.36
2024-01-16T10:09:35.976Z,-0.34
2024-01-16T10:12:21.476Z,-0.31
2024-01-16T10:15:11.079Z,-0.25
2024-01-16T10:17:57.092Z,-0.23
2024-01-16T10:20:42.639Z,-0.20
2024-01-16T10:23:34.094Z,-0.18
2024-01-16T10:26:22.248Z,-0.17
2024-01-16T10:29:08.302Z,-0.10
2024-01-16T10:31:54.432Z,-0.06
2024-01-16T10:34:40.333Z,-0.01
2024-01-16T10:37:26.282Z,0.09
2024-01-16T10:40:15.885Z,0.17
2024-01-16T10:43:02.198Z,0.24
2024-01-16T10:45:47.800Z,0.30
2024-01-16T10:48:33.256Z,0.32
2024-01-16T10:51:19.023Z,0.32
2024-01-16T10:54:07.109Z,0.30
2024-01-16T10:56:53.111Z,0.29
2024-01-16T10:59:57.133Z,0.28
2024-01-16T11:02:50.277Z,0.33
2024-01-16T11:05:38.644Z,0.35
2024-01-16T11:08:30.524Z,0.42
2024-01-16T11:11:17.665Z,0.46
2024-01-16T11:14:07.557Z,0.46
2024-01-16T11:16:54.657Z,0.44
2024-01-16T11:19:49.680Z,0.36
2024-01-16T11:22:46.969Z,0.27
2024-01-16T11:25:34.155Z,0.27
2024-01-16T11:28:21.021Z,0.27
2024-01-16T11:31:35.521Z,0.18
2024-01-16T11:34:43.593Z,0.14
2024-01-16T11:37:32.792Z,0.13
2024-01-16T11:40:18.426Z,0.08
2024-01-16T11:43:35.172Z,0.02
2024-01-16T11:46:20.484Z,0.01
2024-01-16T11:49:06.141Z,-0.06
2024-01-16T11:51:51.549Z,-0.09
2024-01-16T11:54:37.137Z,-0.10
2024-01-16T11:57:48.510Z,-0.11
2024-01-16T12:00:36.761Z,-0.15
2024-01-16T12:03:31.670Z,-0.23
2024-01-16T12:06:20.962Z,-0.16
2024-01-16T12:09:14.188Z,-0.17
2024-01-16T12:12:04.168Z,-0.12
2024-01-16T12:14:56.234Z,-0.13
2024-01-16T12:18:02.152Z,-0.11
2024-01-16T12:20:48.455Z,-0.08
2024-01-16T12:23:35.247Z,-0.07
2024-01-16T12:26:24.810Z,-0.06
2024-01-16T12:29:11.086Z,-0.02
2024-01-16T12:32:12.940Z,0.03
2024-01-16T12:34:59.141Z,0.05
2024-01-16T12:37:44.604Z,0.05
2024-01-16T12:40:30.857Z,0.03
2024-01-16T12:43:20.036Z,0.02
2024-01-16T12:46:07.708Z,-0.02
2024-01-16T12:49:00.642Z,-0.06
2024-01-16T12:51:51.772Z,-0.07
2024-01-16T12:54:37.181Z,-0.12
2024-01-16T12:57:22.780Z,-0.17
2024-01-16T13:00:25.640Z,-0.22
2024-01-16T13:03:20.156Z,-0.21
2024-01-16T13:06:05.868Z,-0.20
2024-01-16T13:08:51.916Z,-0.19
2024-01-16T13:11:47.723Z,-0.21
2024-01-16T13:14:33.286Z,-0.27
2024-01-16T13:17:21.335Z,-0.30
2024-01-16T13:20:11.277Z,-0.36
2024-01-16T13:22:56.590Z,-0.41
2024-01-16T13:25:49.765Z,-0.42
2024-01-16T13:28:35.179Z,-0.44
2024-01-16T13:31:20.729Z,-0.45
2024-01-16T13:34:06.364Z,-0.50
2024-01-16T13:37:09.190Z,-0.55
2024-01-16T13:40:04.304Z,-0.49
2024-01-16T13:42:50.069Z,-0.52
2024-01-16T13:45:39.585Z,-0.49
2024-01-16T13:48:26.126Z,-0.45
2024-01-16T13:51:11.750Z,-0.52
2024-01-16T13:53:58.464Z,-0.52
2024-01-16T13:56:58.721Z,-0.52
2024-01-16T13:59:52.294Z,-0.58
2024-01-16T14:02:39.872Z,-0.60
2024-01-16T14:05:27.222Z,-0.66
2024-01-16T14:08:15.496Z,-0.63
2024-01-16T14:11:01.342Z,-0.65
2024-01-16T14:13:46.777Z,-0.70
2024-01-16T14:16:42.157Z,-0.74
2024-01-16T14:19:37.499Z,-0.73
2024-01-16T14:22:23.192Z,-0.73
2024-01-16T14:25:12.174Z,-0.78
2024-01-16T14:28:04.751Z,-0.75
2024-01-16T14:30:52.106Z,-0.77
2024-01-16T14:33:37.997Z,-0.78
2024-01-16T14:36:23.888Z,-0.79
2024-01-16T14:39:19.254Z,-0.81
2024-01-16T14:42:05.881Z,-0.81
2024-01-16T14:44:51.730Z,-0.78
2024-01-16T14:47:37.299Z,-0.79
2024-01-16T14:50:23.487Z,-0.77
2024-01-16T14:53:09.529Z,-0.74
2024-01-16T14:55:55.328Z,-0.74
2024-01-16T14:58:40.882Z,-0.73
2024-01-16T15:01:26.502Z,-0.75
2024-01-16T15:04:13.194Z,-0.75
2024-01-16T15:06:59.803Z,-0.78
2024-01-16T15:09:45.446Z,-0.83
2024-01-16T15:12:31.776Z,-0.86
2024-01-16T15:15:17.762Z,-0.93
2024-01-16T15:18:03.725Z,-1.01
2024-01-16T15:20:49.279Z,-1.04
2024-01-16T15:23:38.251Z,-1.04
2024-01-16T15:26:23.811Z,-1.07
2024-01-16T15:29:11.350Z,-1.14
2024-01-16T15:31:57.499Z,-1.19
2024-01-16T15:34:43.245Z,-1.23
2024-01-16T15:37:29.432Z,-1.31
2024-01-16T15:40:17.903Z,-1.37
2024-01-16T15:43:05.138Z,-1.44
2024-01-16T15:45:51.966Z,-1.51
2024-01-16T15:48:38.964Z,-1.57
2024-01-16T15:51:24.776Z,-1.67
2024-01-16T15:54:12.529Z,-1.76
2024-01-16T15:56:59.177Z,-1.84
2024-01-16T15:59:45.167Z,-1.95
2024-01-16T16:02:30.925Z,-2.01
2024-01-16T16:05:16.633Z,-2.04
2024-01-16T16:08:02.478Z,-2.08
2024-01-16T16:10:48.704Z,-2.15
2024-01-16T16:13:34.253Z,-2.19
2024-01-16T16:16:19.883Z,-2.24
2024-01-16T16:19:05.939Z,-2.32
2024-01-16T16:21:52.774Z,-2.38
2024-01-16T16:24:38.948Z,-2.43
2024-01-16T16:27:26.387Z,-2.48
2024-01-16T16:30:12.327Z,-2.52
2024-01-16T16:32:58.037Z,-2.58
2024-01-16T16:35:45.393Z,-2.63
2024-01-16T16:38:31.076Z,-2.68
2024-01-16T16:41:17.379Z,-2.79
2024-01-16T16:44:03.101Z,-2.83
2024-01-16T16:46:48.433Z,-2.90
2024-01-16T16:49:34.109Z,-2.92
2024-01-16T16:52:19.492Z,-2.94
2024-01-16T16:55:05.617Z,-2.97
2024-01-16T16:57:51.403Z,-2.97
2024-01-16T17:00:38.039Z,-3.00
2024-01-16T17:03:24.576Z,-3.00
2024-01-16T17:06:10.890Z,-3.04
2024-01-16T17:08:56.878Z,-3.05
2024-01-16T17:11:42.757Z,-3.05
2024-01-16T17:14:28.362Z,-3.03
2024-01-16T17:17:13.798Z,-3.02
2024-01-16T17:19:59.258Z,-3.03
2024-01-16T17:22:44.634Z,-3.02
2024-01-16T17:25:30.465Z,-3.01
2024-01-16T17:28:16.604Z,-3.01
2024-01-16T17:31:03.194Z,-3.04
2024-01-16T17:33:48.684Z,-3.04
2024-01-16T17:36:34.557Z,-3.08
2024-01-16T17:39:22.448Z,-3.11
2024-01-16T17:42:08.190Z,-3.18
2024-01-16T17:44:54.012Z,-3.22
2024-01-16T17:47:39.855Z,-3.25
2024-01-16T17:50:25.681Z,-3.31
2024-01-16T17:53:12.137Z,-3.38
2024-01-16T17:55:57.556Z,-3.41
2024-01-16T17:58:44.281Z,-3.41
2024-01-16T18:01:30.484Z,-3.41
2024-01-16T18:04:16.381Z,-3.40
2024-01-16T18:07:02.913Z,-3.39
2024-01-16T18:09:48.719Z,-3.38
2024-01-16T18:12:34.484Z,-3.36
2024-01-16T18:15:20.134Z,-3.36
2024-01-16T18:18:08.617Z,-3.38
2024-01-16T18:20:55.297Z,-3.39
2024-01-16T18:23:42.059Z,-3.41
2024-01-16T18:26:30.885Z,-3.40
2024-01-16T18:29:21.960Z,-3.40
2024-01-16T18:32:08.337Z,-3.41
2024-01-16T18:34:53.833Z,-3.39
2024-01-16T18:37:40.791Z,-3.40
2024-01-16T18:40:27.280Z,-3.39
2024-01-16T18:43:12.896Z,-3.39
2024-01-16T18:45:59.011Z,-3.39
2024-01-16T18:48:45.277Z,-3.40
2024-01-16T18:51:31.230Z,-3.43
2024-01-16T18:54:18.835Z,-3.44
2024-01-16T18:57:04.703Z,-3.47
2024-01-16T18:59:50.163Z,-3.48
2024-01-16T19:02:35.900Z,-3.53
2024-01-16T19:05:23.387Z,-3.63
2024-01-16T19:08:09.934Z,-3.65
2024-01-16T19:10:56.848Z,-3.68
2024-01-16T19:13:44.180Z,-3.70
2024-01-16T19:16:30.221Z,-3.73
2024-01-16T19:19:16.199Z,-3.72
2024-01-16T19:22:01.997Z,-3.77
2024-01-16T19:24:48.092Z,-3.83
2024-01-16T19:27:33.882Z,-3.91
2024-01-16T19:30:22.404Z,-3.96
2024-01-16T19:33:09.667Z,-4.00
2024-01-16T19:36:00.712Z,-4.07
2024-01-16T19:38:46.522Z,-4.14
2024-01-16T19:41:32.977Z,-4.29
2024-01-16T19:44:18.880Z,-4.40
2024-01-16T19:47:05.564Z,-4.45
2024-01-16T19:49:51.069Z,-4.53
2024-01-16T19:52:37.293Z,-4.59
2024-01-16T19:55:25.126Z,-4.66
2024-01-16T19:58:13.693Z,-4.71
2024-01-16T20:00:59.441Z,-4.78
2024-01-16T20:03:45.607Z,-4.86
2024-01-16T20:06:31.843Z,-4.94
2024-01-16T20:09:19.940Z,-5.05
2024-01-16T20:12:06.131Z,-5.16
2024-01-16T20:14:51.397Z,-5.25
2024-01-16T20:17:37.524Z,-5.32
2024-01-16T20:20:22.842Z,-5.40
2024-01-16T20:23:09.680Z,-5.49
2024-01-16T20:25:55.216Z,-5.57
2024-01-16T20:28:40.913Z,-5.64
2024-01-16T20:31:26.884Z,-5.76
2024-01-16T20:34:13.142Z,-5.84
2024-01-16T20:36:59.371Z,-5.91
2024-01-16T20:39:45.490Z,-5.99
2024-01-16T20:42:31.612Z,-6.13
2024-01-16T20:45:17.379Z,-6.21
2024-01-16T20:48:03.200Z,-6.25
2024-01-16T20:50:48.509Z,-6.29
2024-01-16T20:53:34.226Z,-6.33
2024-01-16T20:56:20.144Z,-6.37
2024-01-16T20:59:05.638Z,-6.43
2024-01-16T21:01:52.846Z,-6.58
2024-01-16T21:04:38.247Z,-6.63
2024-01-16T21:07:25.422Z,-6.66
2024-01-16T21:10:11.091Z,-6.73
2024-01-16T21:12:56.564Z,-6.78
2024-01-16T21:15:42.786Z,-6.81
2024-01-16T21:18:32.524Z,-6.84
2024-01-16T21:21:18.425Z,-6.88
2024-01-16T21:24:05.638Z,-6.95
2024-01-16T21:26:51.117Z,-7.02
2024-01-16T21:29:36.478Z,-7.06
2024-01-16T21:32:22.928Z,-7.10
2024-01-16T21:35:11.841Z,-7.19
2024-01-16T21:37:57.497Z,-7.23
2024-01-16T21:40:43.043Z,-7.29
2024-01-16T21:43:28.347Z,-7.33
2024-01-16T21:46:14.039Z,-7.35
2024-01-16T21:49:00.479Z,-7.47
2024-01-16T21:51:46.435Z,-7.54
2024-01-16T21:54:33.671Z,-7.59
2024-01-16T21:57:19.238Z,-7.63
2024-01-16T22:00:05.985Z,-7.62
2024-01-16T22:02:58.084Z,-7.63
2024-01-16T22:05:44.053Z,-7.76
2024-01-16T22:08:30.255Z,-7.82
2024-01-16T22:11:15.699Z,-7.84
2024-01-16T22:14:01.994Z,-7.84
2024-01-16T22:16:48.674Z,-7.85
2024-01-16T22:19:34.236Z,-7.86
2024-01-16T22:22:19.803Z,-7.90
2024-01-16T22:25:06.316Z,-7.95
2024-01-16T22:27:52.725Z,-7.98
2024-01-16T22:30:38.570Z,-7.98
2024-01-16T22:33:24.836Z,-7.99
2024-01-16T22:36:11.846Z,-8.04
2024-01-16T22:38:57.491Z,-8.10
2024-01-16T22:41:45.127Z,-8.18
2024-01-16T22:44:31.026Z,-8.23
2024-01-16T22:47:16.717Z,-8.29
2024-01-16T22:50:05.550Z,-8.31
2024-01-16T22:52:54.247Z,-8.34
2024-01-16T22:55:39.633Z,-8.35
2024-01-16T22:58:25.107Z,-8.39
2024-01-16T23:01:10.848Z,-8.46
2024-01-16T23:03:58.747Z,-8.48
2024-01-16T23:06:44.717Z,-8.48
2024-01-16T23:09:30.926Z,-8.46
2024-01-16T23:12:16.428Z,-8.46
2024-01-16T23:15:02.232Z,-8.47
2024-01-16T23:17:48.752Z,-8.47
2024-01-16T23:20:34.545Z,-8.47
2024-01-16T23:23:21.674Z,-8.48
2024-01-16T23:26:07.105Z,-8.50
2024-01-16T23:28:52.469Z,-8.52
2024-01-16T23:31:38.282Z,-8.54
2024-01-16T23:34:24.063Z,-8.57
2024-01-16T23:37:09.699Z,-8.58
2024-01-16T23:39:55.491Z,-8.60
2024-01-16T23:42:42.547Z,-8.62
2024-01-16T23:45:33.271Z,-8.65
2024-01-16T23:48:19.551Z,-8.67
2024-01-16T23:51:05.639Z,-8.68
2024-01-16T23:53:51.578Z,-8.68
2024-01-16T23:56:37.120Z,-8.75
2024-01-16T23:59:22.592Z,-8.79
